John M Carras — SVBK5 — position and weather

sailwx.info

Track history (hours):
 
Tides and Currents Weather Stations Pressure Air Temp Water Temp Dewpoint Dewpoint Depression Visibility Wind Speed Wind Dir Waves Ship Positions

John M Carras

Last reported at 2017-Apr-15 22:47 UTC. Time now 2017-May-27 08:01 UTC.
Position N 36°47' E 123°39'.
Warning: this ship's position is 41 days out of date.

Length 229 m; draft 7.4 m.

Type: Ship. MMSI: 241150000.

Date/timePositionNaut miles runAvg speedWind from/ knotsBaromVisibWave heightAir tempDewpointWater temp
2017-Apr-15 22:47N 36°47' E 123°39'512.8
2017-Apr-15 22:25N 36°52' E 123°37'612.9
2017-Apr-15 21:56N 36°57' E 123°34'613.0
2017-Apr-15 21:30N 37°03' E 123°31'713.3
2017-Apr-15 21:00N 37°09' E 123°28'713.5
2017-Apr-15 20:29N 37°15' E 123°24'713.8
2017-Apr-15 20:00N 37°21' E 123°21'714.0
2017-Apr-15 19:30N 37°28' E 123°17'914.2
2017-Apr-15 18:52N 37°35' E 123°10'614.3
2017-Apr-15 18:25N 37°39' E 123°05'714.4
2017-Apr-15 17:58N 37°44' E 122°58'614.3
2017-Apr-15 17:30N 37°48' E 122°52'714.3
2017-Apr-15 17:00N 37°51' E 122°44'713.9
2017-Apr-15 16:31N 37°53' E 122°36'913.8
2017-Apr-15 15:53N 37°57' E 122°26'513.5
2017-Apr-15 15:30N 37°59' E 122°20'713.3
2017-Apr-15 15:00N 38°02' E 122°12'713.3
2017-Apr-15 14:30N 38°05' E 122°05'1313.2
2017-Apr-15 13:30N 38°11' E 121°50'2113.5
2017-Apr-15 11:55N 38°20' E 121°25'614.0
2017-Apr-15 11:31N 38°22' E 121°18'714.0
2017-Apr-15 11:01N 38°25' E 121°10'713.0
2017-Apr-15 10:30N 38°29' E 121°03'713.2
2017-Apr-15 10:00N 38°32' E 120°56'813.1
2017-Apr-15 09:25N 38°28' E 120°47'713.4
2017-Apr-15 08:55N 38°24' E 120°41'613.5
2017-Apr-15 08:30N 38°20' E 120°36'713.0
2017-Apr-15 08:00N 38°16' E 120°29'713.2
2017-Apr-15 07:30N 38°12' E 120°23'713.2
2017-Apr-15 07:00N 38°07' E 120°17'813.2
2017-Apr-15 06:23N 38°01' E 120°10'513.1
2017-Apr-15 06:00N 37°57' E 120°06'713.2
2017-Apr-15 05:30N 37°52' E 120°01'713.3
2017-Apr-15 05:00N 37°47' E 119°56'712.9
2017-Apr-15 04:26N 37°41' E 119°50'511.9
2017-Apr-15 03:59N 37°36' E 119°51'7 0.1
2017-Apr-13 00:46N 37°37' E 120°00'4 7.6
2017-Apr-13 00:15N 37°41' E 120°00'2 8.0
2017-Apr-13 00:00N 37°43' E 120°00'5 1.0
2017-Apr-12 19:03N 37°48' E 120°00'0 0.2
2017-Apr-12 19:00N 37°48' E 120°00'0 0.1
2017-Apr-12 18:30N 37°48' E 119°60'0 0.1
2017-Apr-12 17:57N 37°48' E 119°60'0 0.1
2017-Apr-12 17:30N 37°48' E 119°60'0 0.1
2017-Apr-12 16:54N 37°48' E 119°60'0 0.1
2017-Apr-12 16:30N 37°48' E 119°60'0 0.0
2017-Apr-12 16:00N 37°48' E 119°60'0 0.1
2017-Apr-12 15:30N 37°48' E 119°60'0 0.0
2017-Apr-12 14:57N 37°48' E 119°60'0 0.0
2017-Apr-12 14:30N 37°48' E 119°60'0 0.1
2017-Apr-12 13:30N 37°48' E 120°00'0 0.1
2017-Apr-12 12:15N 37°48' E 120°00'0 0.0
2017-Apr-12 11:48N 37°48' E 120°00'0 0.1
2017-Apr-12 11:30N 37°48' E 120°00'0 0.1
2017-Apr-12 10:45N 37°48' E 120°00'0 0.1
2017-Apr-12 10:30N 37°48' E 120°00'0 0.0
2017-Apr-12 10:00N 37°48' E 120°00'0 0.1
2017-Apr-12 09:30N 37°48' E 120°00'0 0.1
2017-Apr-12 08:57N 37°48' E 120°00'0 0.0
2017-Apr-12 08:30N 37°48' E 120°00'0 0.0
2017-Apr-12 08:00N 37°48' E 120°00'0 0.0
2017-Apr-12 07:18N 37°48' E 120°00'0 0.0
2017-Apr-12 07:00N 37°48' E 120°00'1 1.4
2017-Apr-12 06:23N 37°49' E 120°01'4 5.4
2017-Apr-12 05:36N 37°52' E 120°04'110.6
2017-Apr-12 05:30N 37°53' E 120°05'611.6
2017-Apr-12 05:00N 37°57' E 120°09'612.2
2017-Apr-12 04:30N 38°03' E 120°13'612.3
2017-Apr-12 04:00N 38°08' E 120°18'612.2
2017-Apr-12 03:30N 38°13' E 120°22'612.1
2017-Apr-12 03:00N 38°17' E 120°28'612.1
2017-Apr-12 02:30N 38°21' E 120°34'711.8
2017-Apr-12 01:54N 38°26' E 120°40'511.9
2017-Apr-12 01:27N 38°30' E 120°44'2210.5
2017-Apr-11 23:19N 38°29' E 121°13'412.4
2017-Apr-11 23:00N 38°27' E 121°17'712.3
2017-Apr-11 22:27N 38°24' E 121°25'612.4
2017-Apr-11 22:00N 38°21' E 121°31'712.5
2017-Apr-11 21:28N 38°17' E 121°38'612.6
2017-Apr-11 20:58N 38°14' E 121°45'912.4
2017-Apr-11 20:16N 38°11' E 121°56'412.5
2017-Apr-11 19:59N 38°10' E 121°60'612.6
2017-Apr-11 19:30N 38°07' E 122°06'612.5
2017-Apr-11 19:00N 38°04' E 122°14'612.5
2017-Apr-11 18:30N 38°02' E 122°21'1512.3
2017-Apr-11 17:18N 37°55' E 122°38'412.0
2017-Apr-11 17:00N 37°53' E 122°42'  
Track history (hours):
 
Tides and Currents Weather Stations Pressure Air Temp Water Temp Dewpoint Dewpoint Depression Visibility Wind Speed Wind Dir Waves Ship Positions

John M Carras

Last reported at 2017-Apr-15 22:47 UTC. Time now 2017-May-27 08:01 UTC.
Position N 36°47' E 123°39'.
Warning: this ship's position is 41 days out of date.

Length 229 m; draft 7.4 m.

Type: Ship. MMSI: 241150000.

Date/timePositionNaut miles runAvg speedWind from/ knotsBaromVisibWave heightAir tempDewpointWater temp
2017-Apr-15 22:47N 36°47' E 123°39'512.8
2017-Apr-15 22:25N 36°52' E 123°37'612.9
2017-Apr-15 21:56N 36°57' E 123°34'613.0
2017-Apr-15 21:30N 37°03' E 123°31'713.3
2017-Apr-15 21:00N 37°09' E 123°28'713.5
2017-Apr-15 20:29N 37°15' E 123°24'713.8
2017-Apr-15 20:00N 37°21' E 123°21'714.0
2017-Apr-15 19:30N 37°28' E 123°17'914.2
2017-Apr-15 18:52N 37°35' E 123°10'614.3
2017-Apr-15 18:25N 37°39' E 123°05'714.4
2017-Apr-15 17:58N 37°44' E 122°58'614.3
2017-Apr-15 17:30N 37°48' E 122°52'714.3
2017-Apr-15 17:00N 37°51' E 122°44'713.9
2017-Apr-15 16:31N 37°53' E 122°36'913.8
2017-Apr-15 15:53N 37°57' E 122°26'513.5
2017-Apr-15 15:30N 37°59' E 122°20'713.3
2017-Apr-15 15:00N 38°02' E 122°12'713.3
2017-Apr-15 14:30N 38°05' E 122°05'1313.2
2017-Apr-15 13:30N 38°11' E 121°50'2113.5
2017-Apr-15 11:55N 38°20' E 121°25'614.0
2017-Apr-15 11:31N 38°22' E 121°18'714.0
2017-Apr-15 11:01N 38°25' E 121°10'713.0
2017-Apr-15 10:30N 38°29' E 121°03'713.2
2017-Apr-15 10:00N 38°32' E 120°56'813.1
2017-Apr-15 09:25N 38°28' E 120°47'713.4
2017-Apr-15 08:55N 38°24' E 120°41'613.5
2017-Apr-15 08:30N 38°20' E 120°36'713.0
2017-Apr-15 08:00N 38°16' E 120°29'713.2
2017-Apr-15 07:30N 38°12' E 120°23'713.2
2017-Apr-15 07:00N 38°07' E 120°17'813.2
2017-Apr-15 06:23N 38°01' E 120°10'513.1
2017-Apr-15 06:00N 37°57' E 120°06'713.2
2017-Apr-15 05:30N 37°52' E 120°01'713.3
2017-Apr-15 05:00N 37°47' E 119°56'712.9
2017-Apr-15 04:26N 37°41' E 119°50'511.9
2017-Apr-15 03:59N 37°36' E 119°51'7 0.1
2017-Apr-13 00:46N 37°37' E 120°00'4 7.6
2017-Apr-13 00:15N 37°41' E 120°00'2 8.0
2017-Apr-13 00:00N 37°43' E 120°00'5 1.0
2017-Apr-12 19:03N 37°48' E 120°00'0 0.2
2017-Apr-12 19:00N 37°48' E 120°00'0 0.1
2017-Apr-12 18:30N 37°48' E 119°60'0 0.1
2017-Apr-12 17:57N 37°48' E 119°60'0 0.1
2017-Apr-12 17:30N 37°48' E 119°60'0 0.1
2017-Apr-12 16:54N 37°48' E 119°60'0 0.1
2017-Apr-12 16:30N 37°48' E 119°60'0 0.0
2017-Apr-12 16:00N 37°48' E 119°60'0 0.1
2017-Apr-12 15:30N 37°48' E 119°60'0 0.0
2017-Apr-12 14:57N 37°48' E 119°60'0 0.0
2017-Apr-12 14:30N 37°48' E 119°60'0 0.1
2017-Apr-12 13:30N 37°48' E 120°00'0 0.1
2017-Apr-12 12:15N 37°48' E 120°00'0 0.0
2017-Apr-12 11:48N 37°48' E 120°00'0 0.1
2017-Apr-12 11:30N 37°48' E 120°00'0 0.1
2017-Apr-12 10:45N 37°48' E 120°00'0 0.1
2017-Apr-12 10:30N 37°48' E 120°00'0 0.0
2017-Apr-12 10:00N 37°48' E 120°00'0 0.1
2017-Apr-12 09:30N 37°48' E 120°00'0 0.1
2017-Apr-12 08:57N 37°48' E 120°00'0 0.0
2017-Apr-12 08:30N 37°48' E 120°00'0 0.0
2017-Apr-12 08:00N 37°48' E 120°00'0 0.0
2017-Apr-12 07:18N 37°48' E 120°00'0 0.0
2017-Apr-12 07:00N 37°48' E 120°00'1 1.4
2017-Apr-12 06:23N 37°49' E 120°01'4 5.4
2017-Apr-12 05:36N 37°52' E 120°04'110.6
2017-Apr-12 05:30N 37°53' E 120°05'611.6
2017-Apr-12 05:00N 37°57' E 120°09'612.2
2017-Apr-12 04:30N 38°03' E 120°13'612.3
2017-Apr-12 04:00N 38°08' E 120°18'612.2
2017-Apr-12 03:30N 38°13' E 120°22'612.1
2017-Apr-12 03:00N 38°17' E 120°28'612.1
2017-Apr-12 02:30N 38°21' E 120°34'711.8
2017-Apr-12 01:54N 38°26' E 120°40'511.9
2017-Apr-12 01:27N 38°30' E 120°44'2210.5
2017-Apr-11 23:19N 38°29' E 121°13'412.4
2017-Apr-11 23:00N 38°27' E 121°17'712.3
2017-Apr-11 22:27N 38°24' E 121°25'612.4
2017-Apr-11 22:00N 38°21' E 121°31'712.5
2017-Apr-11 21:28N 38°17' E 121°38'612.6
2017-Apr-11 20:58N 38°14' E 121°45'912.4
2017-Apr-11 20:16N 38°11' E 121°56'412.5
2017-Apr-11 19:59N 38°10' E 121°60'612.6
2017-Apr-11 19:30N 38°07' E 122°06'612.5
2017-Apr-11 19:00N 38°04' E 122°14'612.5
2017-Apr-11 18:30N 38°02' E 122°21'1512.3
2017-Apr-11 17:18N 37°55' E 122°38'412.0
2017-Apr-11 17:00N 37°53' E 122°42'  

Dump ship's entire track history